Waldorf, Minnesota
Current Conditions -  °F | °C
As of 10:15 AM on Wednesday 26 Nov 2014 (Local Time) from KACQ Reporting Station
Light Snow Light Snow  
Wind Chill:   Ceiling: 500
Heat Index: 21°   Visibility: 0.75mi
Dew Point: 18°   Wind: 13mph
Humidity: 86%   Direction: 30°NNE
Pressure: 30.12"   Gusts: NA
Location:  43.93°N, 93.7°W
Report Text: KACQ 261615Z AUTO 03011KT 3/4SM -SN OVC005 M06/M08 A3012 RMK AO2
Loading
Personal Weather Stations






























Interactive Weather Map New forecast layout! Learn more

10-Day Weather Forecast

Advertisements
Track Severe Weather on mobile